Latest Weather Observations for Leinster

IDW60801

Issued at 7:34 am WST Sunday 22 January 2017 (issued every 30 minutes, with the page automatically refreshed every 10 minutes)

About weather observations | Map of weather stations | Latest weather observations for WA | Other Formats
Station Details ID: 012314 Name: LEINSTER AERO Lat: -27.84 Lon: 120.70 Height: 497.0 m
Data from the previous 72 hours. | See also: Recent months at Leinster
Date/Time
WST
Temp
°C
App
Temp
°C
Dew
Point
°C
Rel
Hum
%
Delta-T
°C
Wind Press
QNH
hPa
Press
MSL
hPa
Rain since
9am
mm
Dir  Spd
km/h
Gust
km/h
Spd
kts
Gust
kts
22/07:30am 30.9 30.1 17.9 45 8.5 N 19 28 10 15 1008.0 1004.0 0.0
22/07:00am 28.8 27.9 17.7 51 7.2 N 19 28 10 15 1008.0 1004.0 0.0
22/06:30am 28.2 27.5 17.4 52 6.9 NNE 17 22 9 12 1007.9 1003.9 0.0
22/06:00am 27.8 27.1 17.3 52 6.7 NNE 17 22 9 12 1007.4 1003.5 0.0
22/05:30am 27.8 27.5 17.3 52 6.7 NNE 15 20 8 11 1007.1 1003.2 0.0
22/05:00am 27.9 27.1 17.1 51 6.9 NNE 17 20 9 11 1006.7 1002.8 0.0
22/04:30am 27.9 27.1 17.1 51 6.9 NNE 17 20 9 11 1006.4 1002.4 0.0
22/04:00am 28.0 26.9 17.2 52 6.9 NE 19 24 10 13 1006.1 1002.1 0.0
22/03:30am 28.2 27.1 17.7 53 6.8 NNE 20 28 11 15 1006.1 1002.1 0.0
22/03:00am 28.5 27.4 17.4 51 7.2 NNE 19 26 10 14 1006.1 1002.1 0.0
22/02:30am 29.1 28.0 16.3 46 8.1 NNE 17 24 9 13 1006.2 1002.2 0.0
22/02:00am 29.7 28.4 15.8 43 8.8 N 17 22 9 12 1006.3 1002.3 0.0
22/01:30am 29.9 28.7 16.0 43 8.8 N 17 24 9 13 1006.2 1002.2 0.0
22/01:00am 30.3 28.7 16.0 42 9.1 NNE 19 24 10 13 1006.2 1002.2 0.0
22/12:30am 30.6 28.7 15.8 40 9.4 NNE 20 28 11 15 1006.5 1002.5 0.0
22/12:00am 31.0 29.0 15.4 38 9.8 NE 20 28 11 15 1006.6 1002.7 0.0
 
Date/Time
WST
Temp
°C
App
Temp
°C
Dew
Point
°C
Rel
Hum
%
Delta-T
°C
Wind Press
QNH
hPa
Press
MSL
hPa
Rain since
9am
mm
Dir  Spd
km/h
Gust
km/h
Spd
kts
Gust
kts
21/11:30pm 31.2 29.0 14.4 36 10.4 NE 19 24 10 13 1006.5 1002.5 0.0
21/11:00pm 31.5 28.6 12.3 31 11.6 NE 19 26 10 14 1006.5 1002.5 0.0
21/10:30pm 31.7 28.9 11.5 29 12.0 ENE 17 26 9 14 1006.5 1002.5 0.0
21/10:00pm 32.2 29.2 10.8 27 12.7 ENE 17 22 9 12 1006.3 1002.3 0.0
21/09:30pm 32.8 29.3 10.8 26 13.0 ENE 20 28 11 15 1006.2 1002.2 0.0
21/09:00pm 33.4 30.2 11.3 26 13.2 ENE 19 30 10 16 1006.2 1002.2 0.0
21/08:30pm 34.3 32.3 11.4 25 13.8 E 13 17 7 9 1005.9 1001.9 0.0
21/08:00pm 34.8 32.3 11.2 24 14.2 E 15 24 8 13 1005.7 1001.7 0.0
21/07:30pm 35.2 32.1 11.6 24 14.3 E 19 24 10 13 1005.3 1001.4 0.0
21/07:00pm 35.8 33.8 11.4 23 14.8 E 13 20 7 11 1005.0 1001.1 0.0
21/06:30pm 36.3 35.0 11.2 22 15.2 ESE 9 13 5 7 1004.8 1000.9 0.0
21/06:00pm 36.4 34.5 10.6 21 15.5 SE 11 15 6 8 1004.5 1000.5 0.0
21/05:30pm 37.0 35.3 11.1 21 15.7 SE 11 20 6 11 1004.3 1000.3 0.0
21/05:00pm 37.0 34.1 11.1 21 15.7 SSW 17 24 9 13 1004.1 1000.1 0.0
21/04:30pm 37.1 35.4 11.1 21 15.7 SE 11 20 6 11 1004.0 1000.0 0.0
21/04:00pm 37.2 34.0 11.2 21 15.8 SSE 19 28 10 15 1003.9 999.9 0.0
21/03:30pm 36.6 34.0 12.1 23 15.0 S 17 22 9 12 1004.2 1000.2 0.0
21/03:00pm 37.4 35.8 12.8 23 15.3 E 13 30 7 16 1004.6 1000.6 0.0
21/02:30pm 37.1 35.4 12.5 23 15.2 SE 13 20 7 11 1005.0 1001.1 0.0
21/02:00pm 36.0 35.4 13.5 26 14.1 NW 9 17 5 9 1005.7 1001.7 0.0
21/01:30pm 36.2 35.8 14.2 26 13.9 WNW 9 17 5 9 1006.0 1002.0 0.0
21/01:00pm 35.0 34.1 13.8 28 13.3 E 11 20 6 11 1006.5 1002.5 0.0
21/12:30pm 35.0 34.8 14.8 29 12.8 NNE 9 15 5 8 1006.9 1003.0 0.0
21/12:00pm 35.2 34.7 15.0 30 12.9 NNW 11 20 6 11 1007.3 1003.4 0.0
21/11:30am 33.2 33.2 15.2 33 11.4 NNE 9 24 5 13 1007.7 1003.7 0.0
21/11:00am 33.7 32.7 15.7 34 11.5 NE 15 24 8 13 1008.2 1004.2 0.0
21/10:30am 32.7 32.1 15.7 36 10.8 NE 13 24 7 13 1008.6 1004.7 0.0
21/10:00am 31.9 30.6 15.8 38 10.2 NE 17 24 9 13 1008.9 1005.0 0.0
21/09:30am 31.2 30.0 16.0 40 9.7 NE 17 24 9 13 1009.2 1005.3 0.0
21/09:00am 30.0 28.3 15.7 42 9.0 ENE 19 26 10 14 1009.3 1005.4 0.0
21/08:30am 28.8 26.5 15.7 45 8.2 ENE 22 32 12 17 1009.3 1005.4 0.0
21/08:00am 27.9 25.7 15.9 48 7.5 ENE 22 30 12 16 1009.4 1005.5 0.0
21/07:30am 26.8 23.8 15.8 51 6.9 ENE 26 35 14 19 1009.5 1005.6 0.0
21/07:00am 26.2 23.1 15.6 52 6.6 ENE 26 35 14 19 1009.5 1005.6 0.0
21/06:30am 25.8 23.1 15.5 53 6.4 ENE 24 33 13 18 1009.3 1005.4 0.0
21/06:00am 25.1 23.8 15.7 56 5.8 E 17 28 9 15 1009.0 1005.1 0.0
21/05:30am 24.6 23.3 15.8 58 5.5 ENE 17 24 9 13 1008.6 1004.7 0.0
21/05:00am 24.9 23.0 15.8 57 5.7 E 20 26 11 14 1008.2 1004.2 0.0
21/04:30am 25.2 23.9 15.8 56 5.8 E 17 24 9 13 1008.0 1004.0 0.0
21/04:00am 25.5 24.3 16.1 56 5.9 E 17 24 9 13 1007.7 1003.7 0.0
21/03:30am 25.8 24.2 16.1 55 6.1 ENE 19 28 10 15 1007.4 1003.5 0.0
21/03:00am 26.2 24.5 16.2 54 6.3 ENE 20 28 11 15 1007.2 1003.3 0.0
21/02:30am 26.7 25.5 16.0 52 6.7 ENE 17 24 9 13 1007.2 1003.3 0.0
21/02:00am 27.2 25.4 15.9 50 7.1 ENE 20 33 11 18 1007.2 1003.3 0.0
21/01:30am 27.7 25.9 16.0 49 7.4 E 20 30 11 16 1007.2 1003.3 0.0
21/01:00am 28.2 26.4 15.5 46 8.0 E 19 28 10 15 1007.2 1003.3 0.0
21/12:30am 28.4 26.9 15.3 45 8.2 E 17 24 9 13 1007.2 1003.3 0.0
21/12:00am 28.8 27.7 15.3 43 8.4 ESE 15 24 8 13 1007.3 1003.4 0.0
 
Date/Time
WST
Temp
°C
App
Temp
°C
Dew
Point
°C
Rel
Hum
%
Delta-T
°C
Wind Press
QNH
hPa
Press
MSL
hPa
Rain since
9am
mm
Dir  Spd
km/h
Gust
km/h
Spd
kts
Gust
kts
20/11:30pm 29.2 28.1 15.3 42 8.7 ESE 15 20 8 11 1007.4 1003.5 0.0
20/11:00pm 29.5 28.7 15.2 41 9.0 ESE 13 19 7 10 1007.4 1003.5 0.0
20/10:30pm 29.8 29.2 14.7 39 9.4 ESE 11 15 6 8 1007.4 1003.5 0.0
20/10:00pm 30.2 29.6 14.7 39 9.7 ESE 11 17 6 9 1007.1 1003.2 0.0
20/09:30pm 30.6 29.6 14.7 38 9.9 ESE 13 19 7 10 1006.9 1003.0 0.0
20/09:00pm 31.1 30.1 14.7 37 10.3 ESE 13 19 7 10 1006.8 1002.9 0.0
20/08:30pm 31.7 30.4 14.8 36 10.6 SE 15 20 8 11 1006.8 1002.9 0.0
20/08:00pm 32.3 30.7 14.9 35 11.0 SSE 17 22 9 12 1006.6 1002.7 0.0
20/07:30pm 32.8 30.6 14.4 33 11.5 SSE 19 26 10 14 1006.3 1002.3 0.0
20/07:00pm 33.3 31.5 14.4 32 11.9 SE 17 20 9 11 1006.0 1002.0 0.0
20/06:30pm 33.7 32.0 14.7 32 12.0 SE 17 20 9 11 1005.8 1001.8 0.0
20/06:00pm 34.3 33.3 14.7 30 12.4 SSE 13 24 7 13 1005.5 1001.5 0.0
20/05:30pm 34.0 33.0 14.5 31 12.2 SE 13 22 7 12 1005.3 1001.4 0.0
20/05:00pm 34.5 33.1 14.4 30 12.7 S 15 20 8 11 1005.1 1001.2 0.0
20/04:30pm 34.5 33.2 14.9 31 12.4 SE 15 24 8 13 1005.0 1001.1 0.0
20/04:00pm 34.5 33.6 14.9 31 12.4 SE 13 19 7 10 1005.1 1001.2 0.0
20/03:30pm 34.4 33.1 14.8 30 12.4 SE 15 28 8 15 1005.3 1001.4 0.0
20/03:00pm 34.1 32.9 15.1 32 12.1 SE 15 22 8 12 1005.7 1001.7 0.0
20/02:30pm 33.1 31.8 14.7 33 11.6 SE 15 26 8 14 1006.0 1002.0 0.0
20/02:00pm 32.4 31.2 15.0 35 11.0 SE 15 24 8 13 1006.4 1002.4 0.0
20/01:30pm 32.8 30.6 14.9 34 11.3 E 20 30 11 16 1007.2 1003.3 0.0
20/01:00pm 32.2 30.7 15.2 35 10.7 E 17 30 9 16 1007.7 1003.7 0.0
20/12:30pm 30.0 27.6 14.5 38 9.6 ESE 20 32 11 17 1008.1 1004.1 0.0
20/12:00pm 29.4 26.8 14.8 41 9.1 ESE 22 32 12 17 1008.6 1004.7 0.0
20/11:30am 29.0 26.9 15.2 43 8.6 ESE 20 39 11 21 1008.9 1005.0 0.0
20/11:00am 28.6 25.9 15.5 45 8.2 SE 24 37 13 20 1009.3 1005.4 0.0
20/10:30am 27.6 24.9 15.6 48 7.5 ESE 24 35 13 19 1009.6 1005.7 0.0
20/10:00am 26.0 23.4 16.0 54 6.3 ESE 24 37 13 20 1009.9 1005.9 0.0
20/09:30am 26.4 23.2 15.4 50 6.8 ESE 26 37 14 20 1009.8 1005.8 0.0
20/09:00am 24.8 19.8 13.4 49 6.8 SE 32 39 17 21 1009.8 1005.8 0.0
20/08:30am 23.8 18.5 12.4 48 6.7 ESE 32 41 17 22 1009.6 1005.7 0.0
20/08:00am 23.4 17.9 11.8 48 6.7 SE 32 43 17 23 1009.8 1005.8 0.0
20/07:30am 23.3 17.8 11.7 48 6.7 SE 32 43 17 23 1009.4 1005.5 0.0
20/07:00am 23.3 18.3 11.0 46 7.0 SE 28 35 15 19 1009.1 1005.2 0.0
20/06:30am 22.6 17.4 10.1 45 7.0 SE 28 39 15 21 1008.8 1004.9 0.0
20/06:00am 22.4 17.8 9.6 44 7.1 SE 24 30 13 16 1008.3 1004.3 0.0
20/05:30am 22.2 17.4 9.0 43 7.2 SE 24 32 13 17 1007.8 1003.8 0.0
20/05:00am 22.6 16.9 8.3 40 7.8 SE 28 37 15 20 1007.3 1003.4 0.0
20/04:30am 23.4 18.6 7.5 36 8.5 SSE 22 30 12 16 1006.9 1003.0 0.0
20/04:00am 24.6 19.4 5.4 29 10.0 SSE 22 32 12 17 1006.4 1002.4 0.0
20/03:30am 25.5 19.4 4.6 26 10.8 SSE 26 35 14 19 1006.1 1002.1 0.0
20/03:00am 25.5 21.0 2.2 22 11.5 SSE 15 22 8 12 1006.1 1002.1 0.0
20/02:30am 25.8 20.5 -0.3 18 12.3 SSE 17 22 9 12 1006.1 1002.1 0.0
20/02:00am 26.3 20.9 -1.5 16 12.9 SSE 17 20 9 11 1006.1 1002.1 0.0
20/01:30am 26.9 21.8 -1.9 15 13.3 SSE 15 20 8 11 1006.1 1002.1 0.0
20/01:00am 27.4 21.5 -2.4 14 13.8 SSE 19 24 10 13 1006.1 1002.1 0.0
20/12:30am 28.0 21.8 -3.0 13 14.2 S 20 32 11 17 1006.2 1002.2 0.0
20/12:00am 28.5 21.6 -2.6 13 14.4 S 24 32 13 17 1006.2 1002.2 0.0
 
Date/Time
WST
Temp
°C
App
Temp
°C
Dew
Point
°C
Rel
Hum
%
Delta-T
°C
Wind Press
QNH
hPa
Press
MSL
hPa
Rain since
9am
mm
Dir  Spd
km/h
Gust
km/h
Spd
kts
Gust
kts
19/11:30pm 29.1 22.0 -1.1 14 14.4 S 26 37 14 20 1006.2 1002.2 0.0
19/11:00pm 29.5 23.8 2.7 18 13.7 S 22 32 12 17 1006.3 1002.3 0.0
19/10:30pm 30.1 24.0 4.7 20 13.5 S 26 41 14 22 1006.5 1002.5 0.0
19/10:00pm 30.8 24.3 6.6 22 13.3 S 30 46 16 25 1006.3 1002.3 0.0
19/09:30pm 31.6 26.0 8.6 24 13.1 S 28 41 15 22 1005.9 1001.9 0.0
19/09:00pm 32.4 27.9 9.9 25 13.2 S 24 32 13 17 1005.3 1001.4 0.0
19/08:30pm 33.3 28.6 9.4 23 13.9 S 24 35 13 19 1005.0 1001.1 0.0
19/08:00pm 33.8 29.2 9.8 23 14.1 S 24 32 13 17 1004.7 1000.7 0.0
19/07:30pm 34.4 30.1 10.9 24 14.0 S 24 33 13 18 1004.2 1000.2 0.0
19/07:00pm 34.9 30.8 11.3 24 14.2 SSW 24 39 13 21 1003.8 999.8 0.0
19/06:30pm 36.2 32.2 13.0 24 14.4 S 26 39 14 21 1003.4 999.4 0.0
19/06:00pm 36.1 33.4 13.6 26 14.1 SSW 20 30 11 16 1003.0 999.1 0.0
19/05:30pm 36.2 33.4 14.2 26 13.9 SSW 22 32 12 17 1002.8 998.8 0.0
19/05:00pm 36.6 33.5 14.6 27 14.0 SSW 24 35 13 19 1002.8 998.8 0.0
19/04:30pm 37.2 34.7 15.1 27 14.1 S 22 35 12 19 1002.6 998.6 0.0
19/04:00pm 38.1 36.2 15.2 25 14.8 S 19 28 10 15 1002.8 998.8 0.0
19/03:30pm 36.8 34.4 15.3 28 13.8 S 22 69 12 37 1003.1 999.2 0.0
19/03:00pm 35.8 33.6 16.0 30 12.8 S 22 33 12 18 1003.4 999.4 0.0
19/02:30pm 36.4 33.8 16.0 29 13.2 SSW 24 35 13 19 1003.6 999.6 0.0
19/02:00pm 36.6 34.9 16.2 29 13.3 SSW 20 33 11 18 1003.8 999.8 0.0
19/01:30pm 36.3 34.7 15.9 29 13.2 SSW 19 32 10 17 1004.2 1000.2 0.0
19/01:00pm 35.6 33.6 16.4 32 12.5 SSW 22 32 12 17 1004.8 1000.9 0.0
19/12:30pm 35.0 33.3 16.3 32 12.1 SSW 20 35 11 19 1005.5 1001.5 0.0
19/12:00pm 35.0 32.9 16.3 32 12.1 SW 22 37 12 20 1005.8 1001.8 0.0
19/11:30am 34.6 33.4 16.0 33 12.0 S 17 28 9 15 1006.1 1002.1 0.0
19/11:00am 33.9 33.7 16.7 35 11.2 SSE 13 20 7 11 1006.3 1002.3 0.0
19/10:30am 32.2 31.9 16.5 39 10.1 W 13 24 7 13 1006.7 1002.8 0.0
19/10:00am 31.6 32.3 17.1 41 9.4 W 9 15 5 8 1007.0 1003.1 0.0
19/09:30am 31.0 32.4 17.3 43 8.9 NW 6 13 3 7 1007.3 1003.4 0.0
19/09:00am 29.7 29.9 16.8 45 8.3 N 11 17 6 9 1007.2 1003.3 0.0
19/08:30am 28.5 28.5 17.1 50 7.3 NNE 13 17 7 9 1007.2 1003.3 0.0
19/08:00am 27.3 27.4 17.5 55 6.3 NE 13 19 7 10 1007.3 1003.4 0.0

Other Formats:

Comma delimited format used in spreadsheet applications
http://www.bom.gov.au/fwo/IDW60801/IDW60801.95448.axf

JavaScript Object Notation format (JSON) in row-major order
http://www.bom.gov.au/fwo/IDW60801/IDW60801.95448.json